Etusivu
METAR-TAF:

METAR-TAF

Lentoasemat :

Litchfield Municipal Airport

Litchfield, Illinois, Yhdysvallat

Leveyspiiri: 39-09-44N, Pituuspiiri: 089-40-28W, korkeus merenpinnasta: 210 m

Tämänhetkinen sää

Tämä raportti tehtiin 6 minuuttia sitten, kello 21.35 UTC
Tuuli 3 kn idästä/kaakosta
Lämpötila 6°C
Kosteus 65%
Ilmanpaine 1024 hPa
Näkyvyys: 16.1 km
selkeää

METAR: K3LF 162135Z AUTO 11003KT 10SM CLR 06/00 A3023 RMK AO2 T00581004

Aika: 15:41 (21:41 UTC)


TAF: puuttuu

Säähavainnot ja -ennusteet yli 4000 lentoasemalta (METAR- ja TAF-raportit).

Käytössä olevat sääasemat on merkitty karttaan keltaisilla ja punaisilla pisteillä.

Aseta hiiri pisteen päälle nähdäksesi sääaseman nimen.

Klikkaa sitten nähdäksesi säähavainnot ja -ennusteet.

Kartan vaihtaminen: klikkaa mustalla rastilla varustettuja vihreitä pisteitä, niin voit zoomata sisään; viivalla varustettua vihreää pistettä, niin voit zoomata ulos tai vihreitä nuolia, niin pääset viereisille kartoille.


METAR-TAF: